Time;durP1;ratioP1;P1;durP2;ratioP2;P2;SDS_P1;SDS_P2;PMS_P1;PMS_P2;Temp;Humidity;BMP_temperature;BMP_pressure;BME280_temperature;BME280_humidity;BME280_pressure;Samples;Min_cycle;Max_cycle;Signal;HPM_P1;HPM_P2
2024/01/27 00:01:59;;;;;;;4.90;4.20;;;;;;;2.10;100.00;102141.94;4933104;29;20223;-77
2024/01/27 00:04:24;;;;;;;6.60;4.93;;;;;;;2.12;100.00;102142.91;4926844;29;20700;-77
2024/01/27 00:06:49;;;;;;;7.40;6.20;;;;;;;2.12;100.00;102147.13;4916398;29;20208;-77
2024/01/27 00:09:14;;;;;;;6.27;5.67;;;;;;;2.09;100.00;102144.44;4926508;29;20207;-76
2024/01/27 00:11:40;;;;;;;7.37;5.37;;;;;;;2.08;100.00;102140.97;4926306;29;20202;-76
2024/01/27 00:14:05;;;;;;;8.00;5.60;;;;;;;2.07;100.00;102140.91;4925077;29;21043;-76
2024/01/27 00:16:30;;;;;;;5.33;4.80;;;;;;;2.04;100.00;102138.19;4927732;29;20191;-76
2024/01/27 00:18:56;;;;;;;6.00;5.40;;;;;;;2.00;100.00;102141.34;4929177;29;20215;-76
2024/01/27 00:21:21;;;;;;;5.63;5.03;;;;;;;1.93;100.00;102138.47;4924283;29;20212;-77
2024/01/27 00:23:46;;;;;;;5.23;4.73;;;;;;;1.89;100.00;102138.22;4927826;29;20727;-77
2024/01/27 00:26:12;;;;;;;5.63;4.67;;;;;;;1.86;100.00;102145.69;4923466;29;20194;-75
2024/01/27 00:28:37;;;;;;;5.87;5.07;;;;;;;1.82;100.00;102142.06;4927798;29;20668;-76
2024/01/27 00:31:02;;;;;;;9.20;6.70;;;;;;;1.79;100.00;102144.47;4924584;29;20184;-76
2024/01/27 00:33:28;;;;;;;8.93;6.80;;;;;;;1.79;100.00;102152.13;4930142;29;20824;-76
2024/01/27 00:35:53;;;;;;;6.57;5.80;;;;;;;1.80;100.00;102156.44;4920333;29;20235;-76
2024/01/27 00:38:19;;;;;;;6.40;5.30;;;;;;;1.79;100.00;102155.53;4930061;29;20245;-76
2024/01/27 00:40:44;;;;;;;6.53;5.10;;;;;;;1.81;100.00;102155.66;4926494;29;20242;-76
2024/01/27 00:43:10;;;;;;;7.07;5.17;;;;;;;1.79;100.00;102154.69;4927677;29;20666;-77
2024/01/27 00:45:35;;;;;;;9.13;5.30;;;;;;;1.77;100.00;102151.16;4927762;29;20194;-76
2024/01/27 00:48:01;;;;;;;5.47;4.50;;;;;;;1.79;100.00;102153.00;4923073;29;20215;-76
2024/01/27 00:50:26;;;;;;;5.93;4.30;;;;;;;1.73;100.00;102146.66;4911327;29;20199;-77
2024/01/27 00:52:51;;;;;;;5.37;4.43;;;;;;;1.70;100.00;102147.38;4927013;29;20187;-76
2024/01/27 00:55:17;;;;;;;5.20;4.70;;;;;;;1.68;100.00;102154.91;4927221;29;20674;-77
2024/01/27 00:57:43;;;;;;;5.03;4.40;;;;;;;1.68;100.00;102161.72;4927080;29;20274;-76
2024/01/27 01:00:10;;;;;;;4.77;4.27;;;;;;;1.66;100.00;102161.59;4928677;29;20470;-77
2024/01/27 01:02:36;;;;;;;4.87;3.87;;;;;;;1.68;100.00;102164.25;4925044;29;20839;-76
2024/01/27 01:05:03;;;;;;;4.13;3.73;;;;;;;1.66;100.00;102156.50;4927665;29;20191;-76
2024/01/27 01:07:32;;;;;;;4.17;3.77;;;;;;;1.64;100.00;102165.75;4920054;29;20250;-77
2024/01/27 01:09:58;;;;;;;5.07;3.80;;;;;;;1.67;100.00;102165.91;4922335;29;20241;-76
2024/01/27 01:12:25;;;;;;;5.13;3.60;;;;;;;1.66;100.00;102168.38;4925579;29;20206;-77
2024/01/27 01:14:51;;;;;;;4.87;3.57;;;;;;;1.63;100.00;102171.66;4907270;29;20250;-77
2024/01/27 01:17:17;;;;;;;4.43;3.60;;;;;;;1.54;100.00;102170.25;4928479;29;20298;-77
2024/01/27 01:19:43;;;;;;;5.10;4.17;;;;;;;1.51;100.00;102176.06;4927668;29;20314;-76
2024/01/27 01:22:08;;;;;;;4.80;3.50;;;;;;;1.48;100.00;102186.94;4925220;29;20218;-77
2024/01/27 01:24:34;;;;;;;4.30;3.53;;;;;;;1.47;100.00;102189.41;4924362;29;20218;-77
2024/01/27 01:26:59;;;;;;;3.90;3.50;;;;;;;1.43;100.00;102172.16;4924244;29;20599;-76
2024/01/27 01:29:25;;;;;;;4.53;3.50;;;;;;;1.40;100.00;102175.41;4921532;29;20222;-77
2024/01/27 01:31:51;;;;;;;5.77;4.03;;;;;;;1.39;100.00;102166.00;4913061;29;20190;-77
2024/01/27 01:34:16;;;;;;;5.33;3.80;;;;;;;1.41;100.00;102186.47;4925890;29;20192;-77
2024/01/27 01:36:42;;;;;;;3.87;3.47;;;;;;;1.37;100.00;102182.88;4908765;29;20274;-76
2024/01/27 01:39:08;;;;;;;4.77;3.73;;;;;;;1.29;100.00;102191.72;4925763;29;20282;-77
2024/01/27 01:41:33;;;;;;;4.20;3.43;;;;;;;1.25;100.00;102210.22;4924394;29;20226;-76
2024/01/27 01:43:59;;;;;;;5.07;3.50;;;;;;;1.20;100.00;102213.34;4927434;29;20204;-77
2024/01/27 01:46:24;;;;;;;5.27;3.47;;;;;;;1.19;100.00;102214.16;4927623;29;20669;-77
2024/01/27 01:48:50;;;;;;;4.53;3.30;;;;;;;1.18;100.00;102211.50;4923696;29;20208;-77
2024/01/27 01:51:16;;;;;;;4.03;3.33;;;;;;;1.18;100.00;102208.97;4923144;29;20191;-76
2024/01/27 01:53:42;;;;;;;4.30;3.13;;;;;;;1.24;100.00;102205.91;4925778;29;20191;-77
2024/01/27 01:56:08;;;;;;;4.97;3.43;;;;;;;1.24;100.00;102208.44;4925728;29;20203;-77
2024/01/27 01:58:34;;;;;;;5.27;3.60;;;;;;;1.22;100.00;102210.88;4926931;29;20214;-76
2024/01/27 02:01:02;;;;;;;3.33;3.03;;;;;;;1.15;100.00;102219.84;4922541;29;20226;-76
2024/01/27 02:03:27;;;;;;;3.93;3.37;;;;;;;1.04;100.00;102225.97;4924698;29;20242;-76
2024/01/27 02:05:53;;;;;;;4.70;2.77;;;;;;;1.01;100.00;102228.31;4927399;29;20634;-75
2024/01/27 02:08:18;;;;;;;3.40;3.10;;;;;;;1.00;100.00;102231.66;4928850;29;20226;-75
2024/01/27 02:10:43;;;;;;;4.23;3.10;;;;;;;1.00;100.00;102244.41;4928997;29;20665;-76
2024/01/27 02:13:22;;;;;;;4.10;2.93;;;;;;;0.97;100.00;102247.66;4929648;29;20209;-77
2024/01/27 02:15:49;;;;;;;3.87;3.07;;;;;;;0.96;100.00;102248.44;4927276;29;20244;-77
2024/01/27 02:18:15;;;;;;;4.30;3.47;;;;;;;0.93;100.00;102240.59;4925578;29;20593;-77
2024/01/27 02:20:40;;;;;;;5.33;3.77;;;;;;;0.89;100.00;102243.75;4926282;29;20210;-76
2024/01/27 02:23:06;;;;;;;5.07;3.77;;;;;;;0.81;100.00;102252.56;4927547;29;20277;-76
2024/01/27 02:25:32;;;;;;;4.73;3.67;;;;;;;0.76;100.00;102248.06;4925094;29;20191;-77
2024/01/27 02:27:58;;;;;;;5.43;3.40;;;;;;;0.75;100.00;102250.53;4924957;29;20215;-77
2024/01/27 02:30:23;;;;;;;5.37;3.30;;;;;;;0.76;100.00;102249.75;4924591;29;21705;-76
2024/01/27 02:32:49;;;;;;;3.47;3.17;;;;;;;0.74;100.00;102247.13;4925537;29;20326;-76
2024/01/27 02:35:14;;;;;;;4.40;3.10;;;;;;;0.77;100.00;102246.41;4923985;29;20206;-77
2024/01/27 02:37:40;;;;;;;3.90;3.13;;;;;;;0.80;100.00;102241.50;4923079;29;20286;-77
2024/01/27 02:40:07;;;;;;;3.70;3.20;;;;;;;0.81;100.00;102239.84;4924647;29;20206;-77
2024/01/27 02:42:33;;;;;;;2.80;2.53;;;;;;;0.79;100.00;102244.84;4924993;29;20211;-76
2024/01/27 02:44:58;;;;;;;3.10;2.47;;;;;;;0.71;100.00;102244.38;4925566;29;20560;-77
2024/01/27 02:47:23;;;;;;;3.77;2.43;;;;;;;0.69;100.00;102251.03;4926717;29;20191;-76
2024/01/27 02:49:49;;;;;;;2.93;2.20;;;;;;;0.68;100.00;102258.59;4926205;29;20773;-76
2024/01/27 02:52:14;;;;;;;3.10;1.93;;;;;;;0.67;100.00;102259.38;4909047;29;20200;-78
2024/01/27 02:54:40;;;;;;;3.03;2.47;;;;;;;0.66;100.00;102257.59;4908720;29;20192;-77
2024/01/27 02:57:05;;;;;;;3.20;2.47;;;;;;;0.64;100.00;102259.16;4924776;29;20636;-77
2024/01/27 02:59:30;;;;;;;3.53;2.40;;;;;;;0.60;100.00;102258.97;4928049;29;20218;-76
2024/01/27 03:01:57;;;;;;;4.07;3.23;;;;;;;0.57;100.00;102257.91;4911849;29;20219;-77
2024/01/27 03:04:22;;;;;;;4.57;3.53;;;;;;;0.52;100.00;102270.34;4921238;29;20622;-76
2024/01/27 03:06:47;;;;;;;5.40;3.83;;;;;;;0.47;100.00;102264.06;4922290;29;20235;-76
2024/01/27 03:09:13;;;;;;;5.43;3.40;;;;;;;0.45;100.00;102261.41;4922833;29;20298;-76
2024/01/27 03:11:39;;;;;;;4.33;3.33;;;;;;;0.44;100.00;102257.13;4926395;29;20219;-76
2024/01/27 03:14:04;;;;;;;3.80;2.77;;;;;;;0.46;100.00;102257.22;4915220;29;20194;-76
2024/01/27 03:16:29;;;;;;;3.63;3.07;;;;;;;0.47;100.00;102260.63;4932537;29;20190;-77
2024/01/27 03:18:55;;;;;;;4.03;3.23;;;;;;;0.44;100.00;102254.56;4934025;29;20241;-76
2024/01/27 03:21:20;;;;;;;3.67;3.37;;;;;;;0.42;100.00;102248.50;4942140;29;20461;-76
2024/01/27 03:23:45;;;;;;;4.57;3.73;;;;;;;0.37;100.00;102252.41;4919137;29;20242;-76
2024/01/27 03:26:11;;;;;;;3.73;3.40;;;;;;;0.33;100.00;102263.16;4923228;29;20190;-76
2024/01/27 03:28:36;;;;;;;3.87;3.47;;;;;;;0.28;100.00;102254.38;4917166;29;20215;-77
2024/01/27 03:31:01;;;;;;;3.70;3.23;;;;;;;0.27;100.00;102271.28;4928588;29;20274;-77
2024/01/27 03:33:29;;;;;;;4.50;3.60;;;;;;;0.27;100.00;102261.09;4927721;29;20274;-76
2024/01/27 03:35:54;;;;;;;6.30;4.30;;;;;;;0.27;100.00;102256.00;4911535;29;20191;-76
2024/01/27 03:38:20;;;;;;;6.03;4.40;;;;;;;0.25;100.00;102254.16;4930880;29;20232;-76
2024/01/27 03:40:45;;;;;;;4.97;3.80;;;;;;;0.21;100.00;102253.09;4930038;29;20213;-76
2024/01/27 03:43:10;;;;;;;4.87;3.53;;;;;;;0.19;100.00;102259.75;4929541;29;20189;-77
2024/01/27 03:45:36;;;;;;;3.90;3.50;;;;;;;0.17;100.00;102261.31;4931055;29;20238;-77
2024/01/27 03:48:01;;;;;;;4.30;3.60;;;;;;;0.17;100.00;102253.66;4910954;29;20220;-76
2024/01/27 03:50:26;;;;;;;4.50;3.50;;;;;;;0.19;100.00;102266.47;4925943;29;20197;-76
2024/01/27 03:52:52;;;;;;;6.37;3.43;;;;;;;0.19;100.00;102269.94;4914345;29;20186;-76
2024/01/27 03:55:17;;;;;;;4.10;3.33;;;;;;;0.20;100.00;102266.59;4929444;29;20194;-76
2024/01/27 03:57:42;;;;;;;3.63;2.60;;;;;;;0.20;100.00;102280.97;4932019;29;20202;-75
2024/01/27 04:00:08;;;;;;;4.57;3.40;;;;;;;0.19;100.00;102275.03;4928115;29;20236;-76
2024/01/27 04:02:33;;;;;;;3.73;3.03;;;;;;;0.17;100.00;102288.41;4929961;29;20327;-76
2024/01/27 04:04:59;;;;;;;4.17;2.83;;;;;;;0.14;100.00;102287.44;4927276;29;20201;-76
2024/01/27 04:07:24;;;;;;;3.63;3.00;;;;;;;0.10;100.00;102288.03;4925859;29;20199;-76
2024/01/27 04:09:49;;;;;;;3.17;2.87;;;;;;;0.09;100.00;102287.91;4927040;29;20216;-76
2024/01/27 04:12:14;;;;;;;3.47;2.87;;;;;;;0.08;100.00;102287.03;4927100;29;20186;-76
2024/01/27 04:14:40;;;;;;;3.40;2.70;;;;;;;0.07;100.00;102290.34;4926914;29;20566;-77
2024/01/27 04:17:05;;;;;;;3.73;3.13;;;;;;;0.06;100.00;102290.28;4926327;29;20198;-76
2024/01/27 04:19:30;;;;;;;4.47;3.40;;;;;;;0.02;100.00;102291.72;4923647;29;21029;-76
2024/01/27 04:21:56;;;;;;;5.57;3.67;;;;;;;-0.02;100.00;102294.84;4928064;29;20214;-75
2024/01/27 04:24:21;;;;;;;3.63;3.17;;;;;;;-0.06;100.00;102305.59;4926937;29;20194;-76
2024/01/27 04:26:47;;;;;;;6.33;3.30;;;;;;;-0.07;100.00;102306.38;4925568;29;20190;-76
2024/01/27 04:29:14;;;;;;;4.07;3.63;;;;;;;-0.10;100.00;102303.63;4923089;29;20712;-76
2024/01/27 04:31:41;;;;;;;5.43;3.73;;;;;;;-0.11;100.00;102307.84;4922534;29;20191;-76
2024/01/27 04:34:06;;;;;;;4.60;3.30;;;;;;;-0.13;100.00;102304.31;4927796;29;20190;-76
2024/01/27 04:36:31;;;;;;;3.80;2.97;;;;;;;-0.14;100.00;102307.63;4926736;29;20196;-76
2024/01/27 04:38:57;;;;;;;3.53;2.97;;;;;;;-0.13;100.00;102303.41;4926024;29;20215;-76
2024/01/27 04:41:22;;;;;;;3.33;2.90;;;;;;;-0.12;100.00;102305.19;4926989;29;20237;-76
2024/01/27 04:43:48;;;;;;;4.43;3.10;;;;;;;-0.11;100.00;102309.50;4925384;29;20192;-76
2024/01/27 04:46:13;;;;;;;3.73;2.73;;;;;;;-0.10;100.00;102308.72;4924811;29;20202;-76
2024/01/27 04:48:38;;;;;;;3.47;2.70;;;;;;;-0.08;100.00;102309.69;4925046;29;20213;-76
2024/01/27 04:51:04;;;;;;;3.50;3.10;;;;;;;-0.10;100.00;102307.06;4927635;29;20272;-76
2024/01/27 04:53:29;;;;;;;3.60;2.90;;;;;;;-0.11;100.00;102309.50;4930437;29;20202;-76
2024/01/27 04:55:54;;;;;;;3.87;2.70;;;;;;;-0.12;100.00;102305.19;4927252;29;20195;-76
2024/01/27 04:58:19;;;;;;;3.07;2.70;;;;;;;-0.11;100.00;102306.94;4923355;29;20290;-75
2024/01/27 05:00:45;;;;;;;5.20;3.93;;;;;;;-0.10;100.00;102307.06;4929042;29;20308;-77
2024/01/27 05:03:13;;;;;;;3.10;2.67;;;;;;;-0.12;100.00;102303.53;4926303;29;20875;-76
2024/01/27 05:05:42;;;;;;;4.27;2.90;;;;;;;-0.11;100.00;102300.22;4918458;29;20189;-76
2024/01/27 05:08:07;;;;;;;3.60;3.00;;;;;;;-0.13;100.00;102306.84;4925211;29;20210;-76
2024/01/27 05:10:32;;;;;;;4.23;2.70;;;;;;;-0.13;100.00;102299.22;4924458;29;20202;-76
2024/01/27 05:12:58;;;;;;;4.13;3.27;;;;;;;-0.14;100.00;102294.91;4928407;29;20277;-75
2024/01/27 05:15:23;;;;;;;3.33;2.80;;;;;;;-0.13;100.00;102295.78;4925548;29;20202;-76
2024/01/27 05:17:48;;;;;;;3.60;3.13;;;;;;;-0.17;100.00;102287.06;4924450;29;20209;-75
2024/01/27 05:20:14;;;;;;;4.93;3.20;;;;;;;-0.15;100.00;102300.78;4925124;29;20186;-75
2024/01/27 05:22:39;;;;;;;5.97;3.60;;;;;;;-0.18;100.00;102296.38;4918712;29;21328;-75
2024/01/27 05:25:05;;;;;;;3.50;3.00;;;;;;;-0.20;100.00;102294.47;4920366;29;20844;-76
2024/01/27 05:27:30;;;;;;;4.70;3.60;;;;;;;-0.21;100.00;102290.16;4919721;29;20195;-75
2024/01/27 05:29:55;;;;;;;3.73;3.10;;;;;;;-0.24;100.00;102295.06;4926841;29;20229;-75
2024/01/27 05:32:20;;;;;;;6.40;4.40;;;;;;;-0.26;100.00;102302.59;4927475;29;20226;-75
2024/01/27 05:34:46;;;;;;;5.90;3.73;;;;;;;-0.22;100.00;102296.03;4925500;29;20872;-76
2024/01/27 05:37:13;;;;;;;4.73;3.90;;;;;;;-0.24;100.00;102303.56;4906880;29;20569;-76
2024/01/27 05:39:38;;;;;;;4.17;3.30;;;;;;;-0.28;100.00;102309.22;4918261;29;20676;-75
2024/01/27 05:42:03;;;;;;;3.73;3.23;;;;;;;-0.29;100.00;102310.00;4918356;29;20208;-75
2024/01/27 05:44:29;;;;;;;4.10;3.10;;;;;;;-0.30;100.00;102300.59;4923168;29;20205;-75
2024/01/27 05:46:54;;;;;;;4.33;3.00;;;;;;;-0.32;100.00;102297.09;4924226;29;20717;-75
2024/01/27 05:49:20;;;;;;;4.03;3.00;;;;;;;-0.31;100.00;102303.97;4921317;29;20206;-75
2024/01/27 05:51:45;;;;;;;3.50;3.07;;;;;;;-0.33;100.00;102306.38;4923023;29;20698;-75
2024/01/27 05:54:14;;;;;;;3.27;2.87;;;;;;;-0.36;100.00;102295.97;4922871;29;20266;-75
2024/01/27 05:56:40;;;;;;;3.13;2.67;;;;;;;-0.36;100.00;102316.34;4924842;29;20199;-77
2024/01/27 05:59:06;;;;;;;5.77;3.20;;;;;;;-0.36;100.00;102310.38;4920221;29;20207;-74
2024/01/27 06:01:31;;;;;;;3.60;2.43;;;;;;;-0.38;100.00;102299.22;4924879;29;20903;-78
2024/01/27 06:03:56;;;;;;;5.23;2.90;;;;;;;-0.37;100.00;102304.41;4926236;29;20183;-75
2024/01/27 06:06:22;;;;;;;5.33;2.80;;;;;;;-0.36;100.00;102303.63;4925349;29;20213;-74
2024/01/27 06:08:47;;;;;;;3.53;2.87;;;;;;;-0.37;100.00;102312.03;4926575;29;20213;-74
2024/01/27 06:11:12;;;;;;;3.37;2.50;;;;;;;-0.46;100.00;102306.31;4916913;29;20217;-77
2024/01/27 06:13:38;;;;;;;4.43;2.80;;;;;;;-0.51;100.00;102317.81;4922122;29;20190;-74
2024/01/27 06:16:11;;;;;;;4.47;2.50;;;;;;;-0.50;100.00;102324.69;4923510;29;20220;-74
2024/01/27 06:18:37;;;;;;;3.87;3.20;;;;;;;-0.51;100.00;102333.09;4923518;29;20223;-75
2024/01/27 06:21:03;;;;;;;3.23;2.50;;;;;;;-0.52;100.00;102327.13;4928417;29;20203;-74
2024/01/27 06:23:28;;;;;;;2.40;2.20;;;;;;;-0.60;100.00;102330.78;4928498;29;20208;-75
2024/01/27 06:25:53;;;;;;;3.83;2.60;;;;;;;-0.67;100.00;102334.56;4927715;29;20199;-77
2024/01/27 06:28:18;;;;;;;2.60;2.27;;;;;;;-0.70;100.00;102331.84;4928625;29;20778;-75
2024/01/27 06:30:44;;;;;;;4.40;2.77;;;;;;;-0.74;100.00;102331.47;4928945;29;20189;-75
2024/01/27 06:33:09;;;;;;;3.50;2.60;;;;;;;-0.78;100.00;102330.41;4929662;29;20190;-77
2024/01/27 06:35:34;;;;;;;3.83;2.53;;;;;;;-0.83;100.00;102340.25;4926720;29;21179;-75
2024/01/27 06:38:00;;;;;;;4.73;2.70;;;;;;;-0.87;100.00;102340.78;4934420;29;20287;-74
2024/01/27 06:40:25;;;;;;;5.10;4.10;;;;;;;-0.88;100.00;102341.56;4918946;29;20192;-75
2024/01/27 06:42:50;;;;;;;10.37;8.30;;;;;;;-0.88;100.00;102344.09;4927857;29;20195;-75
2024/01/27 06:45:16;;;;;;;14.07;10.60;;;;;;;-0.88;100.00;102335.63;4926743;29;20235;-75
2024/01/27 06:47:41;;;;;;;18.70;13.93;;;;;;;-0.86;100.00;102339.16;4929466;29;20268;-76
2024/01/27 06:50:07;;;;;;;18.40;13.87;;;;;;;-0.84;100.00;102332.53;4921838;29;20189;-75
2024/01/27 06:52:32;;;;;;;17.67;12.97;;;;;;;-0.82;100.00;102330.94;4932520;29;20241;-75
2024/01/27 06:54:57;;;;;;;26.00;20.07;;;;;;;-0.80;100.00;102331.94;4928228;29;20189;-75
2024/01/27 06:57:24;;;;;;;20.37;17.37;;;;;;;-0.80;100.00;102326.84;4931615;29;20213;-75
2024/01/27 06:59:55;;;;;;;17.53;14.50;;;;;;;-0.80;100.00;102329.41;4930760;29;20213;-75
2024/01/27 07:02:27;;;;;;;18.27;14.23;;;;;;;-0.81;100.00;102335.25;4931093;29;20212;-76
2024/01/27 07:04:53;;;;;;;16.07;12.43;;;;;;;-0.84;100.00;102332.53;4930886;29;20195;-77
2024/01/27 07:07:23;;;;;;;16.97;13.57;;;;;;;-0.85;100.00;102336.72;4930685;29;20200;-75
2024/01/27 07:09:49;;;;;;;19.73;14.97;;;;;;;-0.84;100.00;102337.59;4913017;29;20282;-75
2024/01/27 07:12:14;;;;;;;18.87;15.17;;;;;;;-0.86;100.00;102329.84;4930116;29;20238;-75
2024/01/27 07:14:39;;;;;;;16.23;12.93;;;;;;;-0.84;100.00;102329.97;4929944;29;20197;-75
2024/01/27 07:17:05;;;;;;;17.70;13.93;;;;;;;-0.81;100.00;102332.72;4930153;29;20255;-75
2024/01/27 07:19:30;;;;;;;16.33;12.93;;;;;;;-0.80;100.00;102340.47;4929563;29;20218;-77
2024/01/27 07:21:56;;;;;;;19.97;14.77;;;;;;;-0.78;100.00;102340.56;4928893;29;20601;-76
2024/01/27 07:24:21;;;;;;;17.53;13.13;;;;;;;-0.77;100.00;102345.78;4923682;29;20209;-75
2024/01/27 07:26:46;;;;;;;14.33;11.10;;;;;;;-0.76;100.00;102339.00;4912048;29;20661;-75
2024/01/27 07:29:12;;;;;;;13.87;9.20;;;;;;;-0.70;100.00;102343.66;4932479;29;20216;-75
2024/01/27 07:31:37;;;;;;;8.77;6.77;;;;;;;-0.62;100.00;102343.41;4912822;29;20189;-76
2024/01/27 07:34:03;;;;;;;8.53;6.60;;;;;;;-0.65;100.00;102342.31;4925788;29;20197;-75
2024/01/27 07:36:32;;;;;;;7.07;5.77;;;;;;;-0.59;100.00;102339.31;4924100;29;20197;-75
2024/01/27 07:38:58;;;;;;;7.07;5.60;;;;;;;-0.57;100.00;102342.84;4927032;29;20216;-75
2024/01/27 07:41:23;;;;;;;8.20;5.77;;;;;;;-0.54;100.00;102346.50;4927710;29;20892;-75
2024/01/27 07:43:48;;;;;;;6.67;5.80;;;;;;;-0.52;100.00;102347.47;4922120;29;20198;-75
2024/01/27 07:46:13;;;;;;;6.23;5.53;;;;;;;-0.48;100.00;102341.84;4925638;29;20196;-75
2024/01/27 07:48:39;;;;;;;8.50;6.17;;;;;;;-0.39;100.00;102344.13;4930676;29;20237;-75
2024/01/27 07:51:04;;;;;;;9.00;6.17;;;;;;;-0.31;100.00;102347.22;4924700;29;20204;-75
2024/01/27 07:53:29;;;;;;;6.33;5.13;;;;;;;-0.24;100.00;102346.84;4927442;29;20219;-75
2024/01/27 07:55:56;;;;;;;6.87;5.90;;;;;;;-0.14;100.00;102339.81;4924037;29;20561;-75
2024/01/27 07:58:21;;;;;;;5.53;4.93;;;;;;;-0.06;100.00;102339.56;4925048;29;20341;-75
2024/01/27 08:00:47;;;;;;;5.77;5.17;;;;;;;0.05;100.00;102327.56;4926397;29;20266;-75
2024/01/27 08:03:12;;;;;;;5.70;4.87;;;;;;;0.14;100.00;102323.09;4927899;29;20195;-75
2024/01/27 08:05:37;;;;;;;5.17;4.63;;;;;;;0.24;100.00;102324.56;4928248;29;20288;-77
2024/01/27 08:08:03;;;;;;;7.77;4.27;;;;;;;0.35;100.00;102325.28;4926473;29;20214;-75
2024/01/27 08:10:29;;;;;;;6.00;4.37;;;;;;;0.44;100.00;102340.28;4921096;29;20232;-75
2024/01/27 08:12:54;;;;;;;5.03;3.83;;;;;;;0.53;100.00;102337.47;4922422;29;20230;-75
2024/01/27 08:15:19;;;;;;;4.77;3.90;;;;;;;0.62;100.00;102342.28;4927402;29;20203;-75
2024/01/27 08:17:45;;;;;;;11.77;8.20;;;;;;;0.68;100.00;102330.81;4929394;29;20187;-76
2024/01/27 08:20:10;;;;;;;11.37;7.30;;;;;;;0.74;100.00;102328.66;4929187;29;20737;-75
2024/01/27 08:22:36;;;;;;;7.40;3.87;;;;;;;0.77;100.00;102335.63;4912419;29;20223;-75
2024/01/27 08:25:01;;;;;;;7.37;3.90;;;;;;;0.80;100.00;102343.47;4922139;29;20195;-76
2024/01/27 08:27:26;;;;;;;6.00;3.60;;;;;;;0.89;100.00;102340.63;4928006;29;20195;-75
2024/01/27 08:29:52;;;;;;;5.57;4.03;;;;;;;0.94;100.00;102344.34;4927911;29;20242;-76
2024/01/27 08:32:18;;;;;;;7.33;4.40;;;;;;;1.00;100.00;102347.28;4925248;29;20199;-76
2024/01/27 08:34:44;;;;;;;6.93;4.63;;;;;;;1.02;100.00;102355.91;4928925;29;20190;-75
2024/01/27 08:37:18;;;;;;;5.53;4.20;;;;;;;1.03;100.00;102359.34;4928423;29;20667;-76
2024/01/27 08:39:44;;;;;;;5.37;4.80;;;;;;;1.10;100.00;102358.06;4927409;29;20758;-76
2024/01/27 08:42:10;;;;;;;5.90;5.27;;;;;;;1.19;100.00;102358.66;4923913;29;20212;-76
2024/01/27 08:44:35;;;;;;;16.63;14.77;;;;;;;1.26;100.00;102365.03;4928060;29;20198;-75
2024/01/27 08:47:01;;;;;;;12.20;10.43;;;;;;;1.32;100.00;102363.75;4928869;29;20286;-75
2024/01/27 08:49:26;;;;;;;10.47;8.63;;;;;;;1.38;100.00;102358.13;4929321;29;20207;-77
2024/01/27 08:51:51;;;;;;;7.17;6.47;;;;;;;1.46;100.00;102369.69;4929517;29;20191;-75
2024/01/27 08:54:17;;;;;;;6.83;6.10;;;;;;;1.55;100.00;102369.38;4923281;29;20195;-76
2024/01/27 08:56:42;;;;;;;7.47;6.70;;;;;;;1.64;100.00;102358.84;4924902;29;20249;-76
2024/01/27 08:59:07;;;;;;;13.77;9.17;;;;;;;1.70;100.00;102360.88;4926846;29;20212;-76
2024/01/27 09:01:33;;;;;;;8.07;6.47;;;;;;;1.76;100.00;102363.81;4923740;29;20215;-76
2024/01/27 09:03:58;;;;;;;5.87;4.10;;;;;;;1.81;100.00;102358.19;4928733;29;20654;-76
2024/01/27 09:06:23;;;;;;;6.17;4.60;;;;;;;1.82;100.00;102356.50;4926484;29;20207;-76
2024/01/27 09:08:49;;;;;;;6.37;4.60;;;;;;;1.84;100.00;102352.38;4924852;29;20239;-76
2024/01/27 09:11:14;;;;;;;4.70;4.13;;;;;;;1.87;100.00;102356.81;4923855;29;20192;-76
2024/01/27 09:13:39;;;;;;;4.87;4.37;;;;;;;1.88;100.00;102341.56;4911333;29;20204;-77
2024/01/27 09:16:05;;;;;;;6.07;4.20;;;;;;;1.99;100.00;102355.00;4923550;29;20191;-77
2024/01/27 09:18:30;;;;;;;6.00;4.10;;;;;;;2.05;100.00;102357.03;4907051;29;20227;-76
2024/01/27 09:20:56;;;;;;;4.37;3.97;;;;;;;2.10;100.00;102350.53;4911299;29;20657;-75
2024/01/27 09:23:21;;;;;;;6.93;3.97;;;;;;;2.13;100.00;102333.69;4913722;29;20200;-77
2024/01/27 09:25:46;;;;;;;4.83;3.47;;;;;;;2.12;100.00;102348.91;4923987;29;20285;-76
2024/01/27 09:28:12;;;;;;;5.97;3.70;;;;;;;2.19;100.00;102360.41;4921496;29;20215;-76
2024/01/27 09:30:37;;;;;;;5.63;3.73;;;;;;;2.21;100.00;102362.25;4929161;29;20195;-76
2024/01/27 09:33:03;;;;;;;6.23;3.90;;;;;;;2.31;100.00;102363.69;4928108;29;20199;-76
2024/01/27 09:35:28;;;;;;;4.40;3.23;;;;;;;2.28;100.00;102355.81;4928098;29;20199;-77
2024/01/27 09:37:54;;;;;;;5.47;3.50;;;;;;;2.49;100.00;102356.19;4923623;29;20206;-77
2024/01/27 09:40:20;;;;;;;5.33;3.57;;;;;;;2.55;100.00;102359.09;4923713;29;20283;-77
2024/01/27 09:42:52;;;;;;;4.83;3.47;;;;;;;2.57;100.00;102364.28;4930267;29;20776;-76
2024/01/27 09:45:17;;;;;;;5.80;3.50;;;;;;;2.53;100.00;102357.22;4909201;29;20191;-76
2024/01/27 09:47:45;;;;;;;7.00;4.50;;;;;;;2.62;100.00;102349.22;4926651;29;20206;-76
2024/01/27 09:50:11;;;;;;;5.07;3.87;;;;;;;2.62;100.00;102346.66;4926462;29;20566;-78
2024/01/27 09:52:37;;;;;;;4.93;3.57;;;;;;;2.65;100.00;102345.16;4936769;29;20176;-77
2024/01/27 09:55:02;;;;;;;7.27;4.13;;;;;;;2.70;100.00;102330.09;4934456;29;21397;-76
2024/01/27 09:57:29;;;;;;;6.53;4.20;;;;;;;2.79;100.00;102329.72;4924259;29;20295;-78
2024/01/27 09:59:56;;;;;;;6.37;4.27;;;;;;;2.92;100.00;102329.63;4924170;29;20321;-76
2024/01/27 10:02:24;;;;;;;7.17;4.97;;;;;;;3.00;100.00;102322.38;4927234;29;20220;-78
2024/01/27 10:04:50;;;;;;;7.37;5.43;;;;;;;3.09;100.00;102320.28;4926883;29;20214;-76
2024/01/27 10:07:16;;;;;;;7.00;4.73;;;;;;;3.15;100.00;102324.88;4923041;29;20203;-76
2024/01/27 10:09:42;;;;;;;5.83;4.50;;;;;;;3.13;100.00;102318.78;4924427;29;20215;-77
2024/01/27 10:12:10;;;;;;;8.90;5.80;;;;;;;3.14;100.00;102310.31;4926132;29;20569;-76
2024/01/27 10:14:44;;;;;;;6.83;5.50;;;;;;;3.22;100.00;102310.72;4925413;29;20192;-76
2024/01/27 10:17:19;;;;;;;7.57;5.87;;;;;;;3.29;100.00;102315.38;4923404;29;20195;-76
2024/01/27 10:19:45;;;;;;;6.10;5.27;;;;;;;3.32;100.00;102321.53;4926863;29;20290;-76
2024/01/27 10:22:10;;;;;;;9.03;5.83;;;;;;;3.34;100.00;102330.19;4927169;29;20322;-76
2024/01/27 10:24:35;;;;;;;8.63;4.90;;;;;;;3.41;100.00;102326.28;4923492;29;20203;-76
2024/01/27 10:27:02;;;;;;;6.33;5.07;;;;;;;3.49;100.00;102329.25;4922574;29;20812;-79
2024/01/27 10:29:28;;;;;;;6.67;4.80;;;;;;;3.66;100.00;102325.00;4923737;29;20234;-76
2024/01/27 10:31:54;;;;;;;7.97;5.07;;;;;;;3.70;100.00;102324.38;4925889;29;20316;-76
2024/01/27 10:34:22;;;;;;;8.63;5.03;;;;;;;3.76;100.00;102326.38;4923505;29;20199;-75
2024/01/27 10:36:47;;;;;;;6.20;4.60;;;;;;;3.82;100.00;102326.69;4926907;29;20240;-76
2024/01/27 10:39:23;;;;;;;6.27;4.97;;;;;;;3.91;100.00;102316.91;4926716;29;20219;-77
2024/01/27 10:41:50;;;;;;;5.17;4.60;;;;;;;3.91;100.00;102316.91;4925640;29;20785;-77
2024/01/27 10:44:17;;;;;;;6.93;4.63;;;;;;;3.95;100.00;102313.72;4923346;29;20191;-76
2024/01/27 10:46:47;;;;;;;8.03;4.63;;;;;;;3.99;100.00;102306.19;4925729;29;20252;-76
2024/01/27 10:49:14;;;;;;;6.03;4.33;;;;;;;4.07;100.00;102310.00;4922772;29;20957;-77
2024/01/27 10:51:45;;;;;;;6.97;4.50;;;;;;;4.13;100.00;102310.31;4926067;29;20255;-77
2024/01/27 10:54:14;;;;;;;7.53;4.10;;;;;;;4.19;100.00;102307.19;4926254;29;20191;-76
2024/01/27 10:56:41;;;;;;;9.13;4.57;;;;;;;4.24;100.00;102301.47;4926624;29;20282;-77
2024/01/27 10:59:09;;;;;;;5.83;3.80;;;;;;;4.34;100.00;102291.66;4926846;29;20214;-77
2024/01/27 11:01:37;;;;;;;7.40;3.70;;;;;;;4.34;100.00;102289.09;4923921;29;20208;-77
2024/01/27 11:04:03;;;;;;;5.80;3.27;;;;;;;4.38;100.00;102288.47;4910286;29;20862;-77
2024/01/27 11:06:31;;;;;;;5.77;3.70;;;;;;;4.48;100.00;102294.91;4920034;29;20195;-77
2024/01/27 11:08:57;;;;;;;5.57;3.37;;;;;;;4.54;100.00;102298.66;4924270;29;20210;-76
2024/01/27 11:11:23;;;;;;;7.50;3.23;;;;;;;4.60;100.00;102302.34;4927105;29;20196;-77
2024/01/27 11:13:50;;;;;;;4.63;3.23;;;;;;;4.61;100.00;102301.53;4919528;29;20185;-76
2024/01/27 11:16:17;;;;;;;7.40;3.63;;;;;;;4.67;100.00;102300.13;4924776;29;20184;-76